Time;durP1;ratioP1;P1;durP2;ratioP2;P2;SDS_P1;SDS_P2;PMS_P1;PMS_P2;Temp;Humidity;BMP_temperature;BMP_pressure;BME280_temperature;BME280_humidity;BME280_pressure;Samples;Min_cycle;Max_cycle;Signal;HPM_P1;HPM_P2
2021/05/25 00:01:31;;;;;;;1.48;0.20;;;;;;;9.47;67.57;96916.03;5008569;28;20500;-82
2021/05/25 00:03:56;;;;;;;1.85;0.25;;;;;;;9.26;67.67;96906.44;4976292;28;20056;-79
2021/05/25 00:06:22;;;;;;;2.15;0.38;;;;;;;9.13;68.63;96907.59;4978757;28;20037;-80
2021/05/25 00:08:47;;;;;;;1.33;0.30;;;;;;;9.35;68.28;96912.78;4993084;28;20033;-81
2021/05/25 00:11:13;;;;;;;2.65;0.38;;;;;;;9.44;67.84;96905.34;4993170;28;20041;-79
2021/05/25 00:13:38;;;;;;;1.65;0.85;;;;;;;9.45;67.52;96912.91;4993724;28;20041;-80
2021/05/25 00:16:04;;;;;;;1.17;0.30;;;;;;;9.18;68.34;96892.88;4975568;28;20030;-80
2021/05/25 00:18:30;;;;;;;0.90;0.30;;;;;;;9.40;67.47;96899.84;4995029;28;20068;-80
2021/05/25 00:20:55;;;;;;;2.13;0.25;;;;;;;9.16;68.62;96894.91;4978491;28;20025;-79
2021/05/25 00:23:21;;;;;;;1.45;0.40;;;;;;;9.22;68.28;96910.53;4986359;28;20059;-80
2021/05/25 00:25:46;;;;;;;1.88;0.40;;;;;;;9.22;68.46;96903.56;5010751;28;20033;-79
2021/05/25 00:28:12;;;;;;;1.80;0.63;;;;;;;9.31;67.74;96896.13;4994894;28;20439;-81
2021/05/25 00:30:37;;;;;;;1.13;0.35;;;;;;;9.10;68.15;96901.06;5011141;28;20037;-80
2021/05/25 00:33:03;;;;;;;2.15;0.40;;;;;;;9.43;67.47;96899.38;4977893;28;20055;-79
2021/05/25 00:35:33;;;;;;;1.73;0.30;;;;;;;9.55;67.51;96912.22;5010851;28;20029;-78
2021/05/25 00:37:59;;;;;;;0.55;0.30;;;;;;;9.63;67.41;96898.00;4978498;28;20029;-78
2021/05/25 00:40:24;;;;;;;1.48;0.28;;;;;;;9.72;66.97;96910.31;4993964;28;20507;-79
2021/05/25 00:42:49;;;;;;;0.98;0.40;;;;;;;9.38;67.02;96899.31;4964934;28;20041;-81
2021/05/25 00:45:15;;;;;;;2.28;0.65;;;;;;;9.36;67.88;96878.78;5007537;28;20481;-80
2021/05/25 00:47:44;;;;;;;1.02;0.30;;;;;;;9.38;67.74;96897.50;4994618;28;20705;-79
2021/05/25 00:50:13;;;;;;;1.90;0.35;;;;;;;9.45;67.20;96902.50;5006160;28;20084;-79
2021/05/25 00:52:50;;;;;;;2.40;0.30;;;;;;;9.25;67.22;96902.28;4995342;28;20480;-82
2021/05/25 00:55:18;;;;;;;3.08;0.85;;;;;;;9.48;66.97;96914.25;4996563;28;20440;-80
2021/05/25 00:57:45;;;;;;;1.15;0.32;;;;;;;9.38;67.07;96912.31;4980879;28;20037;-80
2021/05/25 01:00:11;;;;;;;2.15;0.50;;;;;;;9.49;66.42;96908.00;5007235;28;20037;-80
2021/05/25 01:02:37;;;;;;;1.05;0.63;;;;;;;9.36;67.02;96904.75;5007176;28;20034;-78
2021/05/25 01:05:04;;;;;;;2.40;0.55;;;;;;;9.62;66.89;96909.44;5012731;28;20083;-80
2021/05/25 01:07:29;;;;;;;0.95;0.20;;;;;;;9.44;66.21;96907.94;5033942;28;20040;-80
2021/05/25 01:09:56;;;;;;;0.88;0.30;;;;;;;9.74;66.11;96918.66;4994806;28;20050;-79
2021/05/25 01:12:25;;;;;;;2.42;0.30;;;;;;;9.53;66.59;96909.88;5031180;28;20041;-79
2021/05/25 01:14:55;;;;;;;3.05;0.50;;;;;;;9.55;66.44;96902.63;5011349;28;20567;-78
2021/05/25 01:17:20;;;;;;;3.85;0.52;;;;;;;9.47;66.65;96908.25;4998220;28;20544;-80
2021/05/25 01:19:46;;;;;;;2.88;0.20;;;;;;;9.62;66.29;96904.25;5014216;28;20028;-79
2021/05/25 01:22:11;;;;;;;1.65;0.40;;;;;;;9.66;65.87;96915.72;4980984;28;20384;-80
2021/05/25 01:24:37;;;;;;;1.50;0.30;;;;;;;9.72;66.14;96917.34;4978603;28;20082;-79
2021/05/25 01:27:06;;;;;;;1.50;0.30;;;;;;;9.74;65.47;96915.28;5013884;28;20456;-78
2021/05/25 01:29:33;;;;;;;1.58;0.30;;;;;;;9.78;65.50;96931.19;5013742;28;20061;-80
2021/05/25 01:31:59;;;;;;;3.60;0.93;;;;;;;9.75;65.28;96937.66;4997232;28;20056;-79
2021/05/25 01:34:24;;;;;;;1.15;0.20;;;;;;;9.61;65.68;96920.88;5013437;28;20022;-79
2021/05/25 01:36:49;;;;;;;0.90;0.30;;;;;;;9.42;65.98;96928.97;5029784;28;20123;-81
2021/05/25 01:39:15;;;;;;;4.35;0.90;;;;;;;9.49;65.59;96929.59;4966746;28;20029;-81
2021/05/25 01:41:42;;;;;;;3.72;0.88;;;;;;;9.67;64.97;96925.09;4983495;28;20040;-79
2021/05/25 01:44:07;;;;;;;1.38;0.20;;;;;;;9.74;64.85;96929.06;5000177;28;20029;-80
2021/05/25 01:46:33;;;;;;;1.23;0.25;;;;;;;9.74;65.28;96936.09;4966384;28;20032;-78
2021/05/25 01:48:58;;;;;;;0.57;0.32;;;;;;;9.62;65.33;96940.66;4982724;28;20038;-80
2021/05/25 01:51:24;;;;;;;3.67;0.47;;;;;;;9.74;65.10;96946.50;4988799;28;20074;-79
2021/05/25 01:53:49;;;;;;;1.13;0.35;;;;;;;9.56;65.98;96944.97;4991771;28;20117;-80
2021/05/25 01:56:18;;;;;;;1.67;0.40;;;;;;;9.64;65.24;96943.78;4992853;28;20029;-79
2021/05/25 01:58:44;;;;;;;1.70;0.30;;;;;;;9.62;64.90;96938.03;4999867;28;20695;-79
2021/05/25 02:01:12;;;;;;;3.13;0.43;;;;;;;9.62;64.67;96944.00;4999428;28;20028;-79
2021/05/25 02:03:39;;;;;;;1.52;0.20;;;;;;;9.57;64.56;96955.13;5014372;28;20038;-79
2021/05/25 02:06:05;;;;;;;2.03;0.35;;;;;;;9.50;65.63;96936.34;5015530;28;20079;-80
2021/05/25 02:08:31;;;;;;;0.60;0.40;;;;;;;9.48;65.13;96948.81;4998968;28;20046;-79
2021/05/25 02:10:59;;;;;;;1.02;0.30;;;;;;;9.69;64.92;96949.03;5013227;28;20053;-80
2021/05/25 02:13:30;;;;;;;1.60;0.70;;;;;;;9.57;64.60;96942.13;5011782;28;20087;-80
2021/05/25 02:15:59;;;;;;;2.85;0.40;;;;;;;9.36;64.92;96951.53;4998734;28;20037;-79
2021/05/25 02:18:27;;;;;;;3.70;0.50;;;;;;;9.52;64.82;96944.69;5015539;28;20033;-79
2021/05/25 02:20:55;;;;;;;3.65;0.55;;;;;;;9.47;65.07;96938.66;4999014;28;20063;-78
2021/05/25 02:23:20;;;;;;;1.30;0.40;;;;;;;9.49;64.92;96959.97;5015568;28;20095;-79
2021/05/25 02:25:46;;;;;;;1.35;0.30;;;;;;;9.56;64.42;96950.19;4998768;28;20029;-79
2021/05/25 02:28:12;;;;;;;0.77;0.30;;;;;;;9.45;65.19;96946.69;4981987;28;20452;-78
2021/05/25 02:30:39;;;;;;;1.38;0.50;;;;;;;9.40;65.28;96948.44;5015176;28;20022;-79
2021/05/25 02:33:07;;;;;;;2.80;1.20;;;;;;;9.13;65.28;96946.53;5006902;28;20034;-79
2021/05/25 02:35:33;;;;;;;1.25;0.40;;;;;;;9.44;65.06;96962.50;5028487;28;20033;-79
2021/05/25 02:37:59;;;;;;;3.97;0.40;;;;;;;9.30;65.37;96938.72;5006890;28;20033;-81
2021/05/25 02:40:25;;;;;;;3.28;0.60;;;;;;;9.25;65.14;96938.66;4992999;28;20134;-79
2021/05/25 02:42:52;;;;;;;3.00;0.60;;;;;;;9.38;65.33;96949.47;5001378;28;20141;-79
2021/05/25 02:45:17;;;;;;;1.80;0.55;;;;;;;9.53;65.15;96961.84;4998774;28;20033;-79
2021/05/25 02:47:42;;;;;;;2.28;0.30;;;;;;;9.44;65.36;96958.13;4980276;28;20034;-79
2021/05/25 02:50:09;;;;;;;2.08;0.50;;;;;;;9.40;65.10;96964.81;4992034;28;20042;-79
2021/05/25 02:52:39;;;;;;;1.25;0.40;;;;;;;9.25;65.45;96975.78;4994117;28;20695;-79
2021/05/25 02:55:07;;;;;;;2.78;0.63;;;;;;;9.45;65.33;96971.91;4998411;28;20554;-80
2021/05/25 02:57:33;;;;;;;2.60;0.40;;;;;;;9.38;64.96;96965.06;4979109;28;20041;-79
2021/05/25 02:59:58;;;;;;;1.77;0.52;;;;;;;9.34;65.01;96973.59;4998552;28;20032;-80
2021/05/25 03:02:23;;;;;;;1.58;0.20;;;;;;;9.55;64.13;96965.00;5013614;28;20025;-80
2021/05/25 03:04:49;;;;;;;1.33;0.30;;;;;;;9.45;64.90;96971.91;4998013;28;20029;-79
2021/05/25 03:07:15;;;;;;;1.33;0.68;;;;;;;9.23;65.10;96964.09;4998621;28;20088;-79
2021/05/25 03:09:40;;;;;;;2.22;0.40;;;;;;;9.47;64.72;96973.22;5014620;28;20041;-79
2021/05/25 03:12:06;;;;;;;1.70;0.20;;;;;;;9.23;65.59;96966.69;4991296;28;20048;-79
2021/05/25 03:14:31;;;;;;;1.23;0.30;;;;;;;9.47;64.32;96973.22;4981563;28;20553;-80
2021/05/25 03:16:57;;;;;;;0.80;0.30;;;;;;;9.54;64.01;96971.25;4997420;28;20381;-79
2021/05/25 03:19:23;;;;;;;1.65;0.60;;;;;;;9.40;64.13;96975.22;4981668;28;20035;-80
2021/05/25 03:21:48;;;;;;;1.02;0.32;;;;;;;9.33;64.35;96977.97;4981647;28;20442;-80
2021/05/25 03:24:16;;;;;;;2.17;0.95;;;;;;;9.31;64.33;96958.47;4995752;28;20036;-80
2021/05/25 03:26:42;;;;;;;1.10;0.50;;;;;;;9.37;64.59;96962.69;4998396;28;20498;-79
2021/05/25 03:29:07;;;;;;;2.53;0.40;;;;;;;9.32;64.06;96970.44;5014190;28;20029;-79
2021/05/25 03:31:32;;;;;;;3.03;0.50;;;;;;;9.40;64.07;96972.59;4997364;28;20481;-80
2021/05/25 03:33:58;;;;;;;1.83;0.40;;;;;;;9.39;63.38;96950.25;5014650;28;20045;-81
2021/05/25 03:36:23;;;;;;;1.27;0.45;;;;;;;9.44;64.29;96962.50;4991003;28;20367;-79
2021/05/25 03:38:48;;;;;;;2.33;0.40;;;;;;;9.47;63.93;96962.03;4993334;28;20048;-79
2021/05/25 03:41:14;;;;;;;2.33;0.20;;;;;;;9.67;63.30;96969.28;5013052;28;20029;-79
2021/05/25 03:43:39;;;;;;;1.50;0.52;;;;;;;9.61;63.61;96960.63;4997531;28;20384;-80
2021/05/25 03:46:05;;;;;;;1.55;0.57;;;;;;;9.21;64.55;96953.94;4981608;28;20068;-79
2021/05/25 03:48:30;;;;;;;2.65;0.88;;;;;;;9.18;64.52;96949.22;4981445;28;20487;-78
2021/05/25 03:50:55;;;;;;;1.08;0.25;;;;;;;9.27;64.17;96958.19;4981474;28;20029;-79
2021/05/25 03:53:21;;;;;;;0.85;0.28;;;;;;;9.34;63.91;96945.00;5031322;28;20049;-80
2021/05/25 04:00:59;;;;;;;2.25;0.52;;;;;;;9.42;64.37;96954.19;5012442;28;20416;-79
2021/05/25 04:03:25;;;;;;;1.27;0.30;;;;;;;9.37;63.60;96949.69;4980039;28;20029;-79
2021/05/25 04:05:51;;;;;;;1.95;0.38;;;;;;;9.66;63.74;96965.09;4997293;28;20052;-79
2021/05/25 04:08:17;;;;;;;2.13;0.90;;;;;;;9.30;64.31;96949.09;4978927;28;20052;-80
2021/05/25 04:10:43;;;;;;;2.17;0.80;;;;;;;9.41;64.11;96969.00;4997159;28;20034;-80
2021/05/25 04:13:09;;;;;;;0.98;0.45;;;;;;;9.50;64.70;96971.97;4994495;28;20038;-78
2021/05/25 04:15:36;;;;;;;4.25;0.40;;;;;;;9.07;65.43;96969.06;4997115;28;20033;-80
2021/05/25 04:18:02;;;;;;;2.45;0.40;;;;;;;9.09;65.77;96961.81;4975184;28;20038;-80
2021/05/25 04:20:27;;;;;;;2.70;0.30;;;;;;;9.32;64.73;96960.03;4997763;28;20066;-80
2021/05/25 04:22:53;;;;;;;2.35;0.35;;;;;;;9.41;64.42;96950.00;4977530;28;20030;-81
2021/05/25 04:25:18;;;;;;;1.17;0.38;;;;;;;9.22;65.13;96957.31;5013186;28;20033;-79
2021/05/25 04:27:44;;;;;;;1.80;0.50;;;;;;;9.22;65.56;96975.50;4987371;28;20061;-78
2021/05/25 04:30:11;;;;;;;1.02;0.30;;;;;;;9.20;64.31;96960.13;5012886;28;20064;-80
2021/05/25 04:32:37;;;;;;;1.45;0.38;;;;;;;9.34;64.77;96978.78;4991636;28;20053;-80
2021/05/25 04:35:04;;;;;;;1.52;0.30;;;;;;;9.14;66.12;96977.47;5007713;28;20034;-79
2021/05/25 04:37:29;;;;;;;1.95;0.30;;;;;;;9.36;64.32;96972.31;4994421;28;20040;-80
2021/05/25 04:39:54;;;;;;;1.85;0.50;;;;;;;9.34;64.78;96969.16;5026288;28;20029;-80
2021/05/25 04:42:20;;;;;;;1.15;0.50;;;;;;;9.47;64.62;96994.00;4984356;28;20030;-80
2021/05/25 04:44:45;;;;;;;2.97;1.05;;;;;;;9.57;64.87;96978.53;4996618;28;20534;-79
2021/05/25 04:47:11;;;;;;;2.20;0.38;;;;;;;9.48;65.26;96980.00;5013311;28;20128;-80
2021/05/25 04:49:39;;;;;;;1.50;0.80;;;;;;;9.21;65.46;96989.53;4996598;28;20038;-82
2021/05/25 04:52:05;;;;;;;1.42;0.40;;;;;;;9.47;64.92;96994.00;4996935;28;20033;-80
2021/05/25 04:54:30;;;;;;;2.85;0.22;;;;;;;9.51;65.32;96994.31;4997061;28;20030;-79
2021/05/25 04:56:56;;;;;;;0.63;0.30;;;;;;;9.51;65.82;97008.09;4995953;28;20029;-80
2021/05/25 04:59:21;;;;;;;0.95;0.30;;;;;;;9.14;67.39;97000.84;4977991;28;20021;-80
2021/05/25 05:01:47;;;;;;;0.60;0.30;;;;;;;9.44;66.75;96989.31;4991633;28;20124;-79
2021/05/25 05:04:12;;;;;;;2.30;0.30;;;;;;;9.10;67.83;96988.56;5012404;28;20105;-81
2021/05/25 05:06:40;;;;;;;2.00;0.50;;;;;;;9.25;67.21;96995.78;4980133;28;20044;-81
2021/05/25 05:09:05;;;;;;;1.27;0.35;;;;;;;9.18;67.45;96995.97;4994683;28;20029;-80
2021/05/25 05:11:31;;;;;;;0.55;0.40;;;;;;;9.35;67.11;96995.94;4979246;28;20587;-80
2021/05/25 05:13:57;;;;;;;2.55;0.30;;;;;;;9.38;67.65;97011.03;4977515;28;20041;-79
2021/05/25 05:16:23;;;;;;;1.38;0.52;;;;;;;9.51;66.57;97021.09;5012414;28;20368;-79
2021/05/25 05:18:48;;;;;;;4.03;0.52;;;;;;;9.25;68.07;97019.19;5012516;28;20021;-79
2021/05/25 05:21:14;;;;;;;1.23;0.20;;;;;;;9.45;67.22;97022.03;4989284;28;20044;-80
2021/05/25 05:23:39;;;;;;;1.40;0.60;;;;;;;9.51;67.58;97023.69;4979513;28;20026;-79
2021/05/25 05:26:04;;;;;;;1.98;0.30;;;;;;;9.30;67.47;97029.63;4980292;28;20128;-79
2021/05/25 05:28:31;;;;;;;1.55;0.60;;;;;;;9.26;68.92;97036.34;5030688;28;20037;-79
2021/05/25 05:30:56;;;;;;;1.48;0.45;;;;;;;9.44;68.32;97033.50;4983981;28;20071;-79
2021/05/25 05:33:22;;;;;;;2.05;0.63;;;;;;;9.35;69.03;97040.88;4994388;28;20037;-80
2021/05/25 05:35:47;;;;;;;1.40;0.38;;;;;;;9.12;69.35;97026.28;5012466;28;20029;-80
2021/05/25 05:38:16;;;;;;;1.63;0.45;;;;;;;9.17;69.47;97038.56;5010878;28;20504;-81
2021/05/25 05:40:41;;;;;;;1.58;0.70;;;;;;;9.15;69.54;97032.81;4979556;28;20038;-81
2021/05/25 05:43:07;;;;;;;2.45;0.60;;;;;;;9.06;70.42;97040.22;5011579;28;20037;-80
2021/05/25 05:45:33;;;;;;;3.45;0.40;;;;;;;9.15;70.34;97049.19;5013196;28;20060;-80
2021/05/25 05:47:59;;;;;;;1.42;0.40;;;;;;;9.19;69.81;97044.31;4997443;28;20127;-81
2021/05/25 05:50:24;;;;;;;1.85;0.60;;;;;;;9.14;70.24;97049.44;4977683;28;20533;-81
2021/05/25 05:52:49;;;;;;;3.78;1.42;;;;;;;8.92;70.63;97054.56;4987346;28;20030;-82
2021/05/25 05:55:15;;;;;;;2.90;0.98;;;;;;;9.18;70.91;97053.91;4996988;28;20069;-80
2021/05/25 05:57:42;;;;;;;1.15;0.40;;;;;;;8.97;70.21;97045.03;5000281;28;20075;-80
2021/05/25 06:00:08;;;;;;;1.35;0.52;;;;;;;9.17;70.39;97061.94;5014181;28;20079;-81
2021/05/25 06:02:34;;;;;;;1.42;0.57;;;;;;;9.37;69.48;97071.81;5012873;28;20092;-80
2021/05/25 06:05:00;;;;;;;3.90;0.50;;;;;;;9.30;69.46;97053.81;4980599;28;20030;-82
2021/05/25 06:07:25;;;;;;;1.20;0.50;;;;;;;9.18;69.91;97064.31;4997616;28;20383;-80
2021/05/25 06:09:52;;;;;;;1.73;0.38;;;;;;;9.36;69.54;97080.66;4981044;28;20129;-82
2021/05/25 06:12:17;;;;;;;1.25;0.40;;;;;;;9.39;69.44;97075.00;4996980;28;20033;-80
2021/05/25 06:14:42;;;;;;;1.05;0.35;;;;;;;9.29;70.41;97080.03;4981110;28;20036;-81
2021/05/25 06:17:08;;;;;;;1.63;0.40;;;;;;;9.18;70.15;97072.09;5013554;28;20542;-82
2021/05/25 06:19:33;;;;;;;1.45;0.40;;;;;;;9.13;70.38;97072.03;4997123;28;20026;-81
2021/05/25 06:21:59;;;;;;;1.00;0.40;;;;;;;9.20;70.38;97087.44;4996745;28;20117;-83
2021/05/25 06:24:24;;;;;;;1.15;0.38;;;;;;;9.25;70.67;97076.34;4973909;28;20072;-80
2021/05/25 06:26:49;;;;;;;2.38;0.50;;;;;;;9.00;70.91;97075.72;4988513;28;20057;-82
2021/05/25 06:29:15;;;;;;;1.77;0.50;;;;;;;9.21;70.77;97083.81;4995966;28;20026;-82
2021/05/25 06:31:40;;;;;;;1.23;0.50;;;;;;;9.16;70.97;97068.94;4995647;28;20044;-81
2021/05/25 06:34:06;;;;;;;0.95;0.40;;;;;;;9.31;70.54;97078.00;4972551;28;20140;-83
2021/05/25 06:36:31;;;;;;;1.50;0.50;;;;;;;9.27;70.82;97079.47;4995289;28;20072;-82
2021/05/25 06:38:56;;;;;;;0.90;0.30;;;;;;;9.27;71.36;97076.88;4975170;28;20026;-81
2021/05/25 06:41:22;;;;;;;1.77;0.40;;;;;;;9.21;71.69;97083.03;5007635;28;20124;-82
2021/05/25 06:43:50;;;;;;;1.65;0.38;;;;;;;9.01;71.66;97076.50;4972825;28;20017;-81
2021/05/25 06:46:15;;;;;;;0.88;0.30;;;;;;;9.30;71.73;97097.97;4990841;28;20040;-83
2021/05/25 06:48:41;;;;;;;1.30;0.40;;;;;;;9.11;72.11;97089.63;4979320;28;20033;-81
2021/05/25 06:51:07;;;;;;;1.67;0.38;;;;;;;9.27;70.84;97089.88;5002302;28;20083;-80
2021/05/25 06:53:36;;;;;;;0.80;0.40;;;;;;;8.93;72.46;97095.09;4977706;28;20140;-80
2021/05/25 06:56:03;;;;;;;0.52;0.30;;;;;;;9.19;71.92;97109.25;5009548;28;20041;-79
2021/05/25 06:58:28;;;;;;;2.42;0.95;;;;;;;9.14;71.49;97089.16;5009409;28;20501;-81
2021/05/25 07:00:54;;;;;;;2.35;0.55;;;;;;;9.24;71.38;97103.34;5009233;28;20061;-79
2021/05/25 07:03:20;;;;;;;2.13;0.40;;;;;;;9.26;71.63;97109.09;4986738;28;20072;-78
2021/05/25 07:05:45;;;;;;;2.70;0.77;;;;;;;9.23;72.08;97118.13;4984276;28;20444;-79
2021/05/25 07:08:12;;;;;;;1.75;0.57;;;;;;;9.14;71.80;97109.94;4991817;28;20038;-80
2021/05/25 07:10:37;;;;;;;1.05;0.55;;;;;;;9.28;72.01;97120.81;5004680;28;20530;-80
2021/05/25 07:13:02;;;;;;;2.25;0.60;;;;;;;9.27;71.44;97127.03;5001587;28;20064;-80
2021/05/25 07:15:28;;;;;;;0.82;0.50;;;;;;;9.28;71.58;97131.19;4991384;28;20079;-79
2021/05/25 07:17:57;;;;;;;2.90;0.50;;;;;;;9.35;71.78;97141.44;4967208;28;20032;-79
2021/05/25 07:20:24;;;;;;;1.35;0.40;;;;;;;9.32;71.02;97131.50;5003530;28;20599;-79
2021/05/25 07:22:51;;;;;;;1.13;0.45;;;;;;;9.49;71.01;97147.91;4993435;28;20025;-79
2021/05/25 07:25:18;;;;;;;1.60;0.38;;;;;;;9.52;71.30;97137.00;4998490;28;20118;-79
2021/05/25 07:27:43;;;;;;;0.80;0.35;;;;;;;9.53;71.59;97149.00;5001496;28;20057;-79
2021/05/25 07:30:09;;;;;;;1.38;0.60;;;;;;;9.60;72.26;97148.06;5009439;28;20446;-79
2021/05/25 07:32:35;;;;;;;2.33;0.55;;;;;;;9.77;71.49;97156.59;4976894;28;20492;-79
2021/05/25 07:35:00;;;;;;;0.90;0.20;;;;;;;9.61;70.57;97145.19;4992984;28;20132;-80
2021/05/25 07:37:25;;;;;;;0.95;0.30;;;;;;;9.65;70.92;97158.53;4999709;28;20036;-79
2021/05/25 07:39:51;;;;;;;1.70;0.30;;;;;;;9.75;70.18;97163.88;5015263;28;20021;-79
2021/05/25 07:42:19;;;;;;;2.08;0.43;;;;;;;9.50;71.42;97166.88;4998823;28;20371;-79
2021/05/25 07:44:44;;;;;;;3.40;0.77;;;;;;;9.59;70.91;97151.66;4985106;28;20039;-79
2021/05/25 07:47:09;;;;;;;1.10;0.57;;;;;;;9.47;70.93;97155.13;5013925;28;20025;-79
2021/05/25 07:49:35;;;;;;;1.13;0.30;;;;;;;9.37;70.60;97154.97;5013727;28;20061;-79
2021/05/25 07:52:01;;;;;;;0.70;0.30;;;;;;;9.49;71.04;97166.09;5016112;28;20071;-79
2021/05/25 07:54:27;;;;;;;1.20;0.30;;;;;;;9.49;71.66;97167.88;5014208;28;20421;-79
2021/05/25 07:56:52;;;;;;;0.50;0.30;;;;;;;9.41;71.53;97176.06;5009071;28;20044;-80
2021/05/25 07:59:17;;;;;;;1.23;0.43;;;;;;;9.44;70.67;97173.81;4992552;28;20342;-79
2021/05/25 08:01:43;;;;;;;0.85;0.40;;;;;;;9.32;71.75;97188.66;4984738;28;20100;-79
2021/05/25 08:04:08;;;;;;;1.42;0.40;;;;;;;9.09;72.46;97182.59;4972212;28;20140;-79
2021/05/25 08:06:39;;;;;;;1.10;0.30;;;;;;;9.04;72.93;97192.91;5008407;28;20059;-80
2021/05/25 08:09:05;;;;;;;0.93;0.40;;;;;;;9.13;72.75;97201.09;5026237;28;20101;-80
2021/05/25 08:11:31;;;;;;;0.75;0.30;;;;;;;9.21;72.06;97185.13;4972756;28;20042;-79
2021/05/25 08:13:57;;;;;;;2.03;0.50;;;;;;;9.42;71.26;97199.22;4977669;28;20633;-79
2021/05/25 08:16:27;;;;;;;0.60;0.38;;;;;;;9.49;71.83;97205.09;5005465;28;20503;-79
2021/05/25 08:21:37;;;;;;;0.77;0.32;;;;;;;9.63;71.92;97213.34;5010957;28;20365;-78
2021/05/25 08:24:04;;;;;;;1.42;0.50;;;;;;;9.79;71.94;97214.34;4983283;28;20447;-79
2021/05/25 08:26:30;;;;;;;1.33;0.40;;;;;;;9.65;73.31;97207.91;4973265;28;20145;-80
2021/05/25 08:28:55;;;;;;;1.25;0.40;;;;;;;10.04;70.46;97224.34;4984345;28;20104;-78
2021/05/25 08:31:21;;;;;;;1.23;0.40;;;;;;;10.23;71.54;97234.47;4991846;28;20393;-78
2021/05/25 08:33:46;;;;;;;1.80;0.60;;;;;;;10.41;71.09;97215.22;5012299;28;20029;-79
2021/05/25 08:36:12;;;;;;;1.83;0.50;;;;;;;10.14;71.28;97223.69;4990857;28;20025;-79
2021/05/25 08:38:38;;;;;;;1.05;0.52;;;;;;;10.43;71.02;97247.00;5012432;28;20439;-79
2021/05/25 08:41:04;;;;;;;3.78;0.95;;;;;;;10.16;70.50;97237.25;5008007;28;20365;-78
2021/05/25 08:43:29;;;;;;;1.50;0.50;;;;;;;10.18;71.35;97247.41;5026226;28;20033;-79
2021/05/25 08:45:55;;;;;;;3.15;0.70;;;;;;;10.03;71.68;97242.78;4990865;28;20496;-78
2021/05/25 08:48:21;;;;;;;1.70;0.80;;;;;;;10.11;71.43;97255.41;5008604;28;20049;-80
2021/05/25 08:50:47;;;;;;;2.10;1.15;;;;;;;10.06;71.34;97257.94;4989199;28;20030;-79
2021/05/25 08:53:13;;;;;;;1.80;0.80;;;;;;;10.00;71.21;97251.06;4987488;28;20029;-78
2021/05/25 08:55:39;;;;;;;4.28;1.02;;;;;;;9.98;71.04;97268.72;4973633;28;20547;-78
2021/05/25 08:58:05;;;;;;;1.90;1.25;;;;;;;10.16;71.30;97267.66;5006026;28;20384;-78
2021/05/25 09:00:32;;;;;;;2.72;1.10;;;;;;;10.18;70.29;97263.81;4994036;28;20040;-79
2021/05/25 09:02:58;;;;;;;2.90;1.00;;;;;;;10.19;69.98;97275.78;4986426;28;20033;-78
2021/05/25 09:05:24;;;;;;;4.60;1.23;;;;;;;10.20;69.67;97279.19;5007167;28;20045;-79
2021/05/25 09:07:53;;;;;;;3.35;0.70;;;;;;;10.24;70.06;97288.88;4988275;28;20041;-79
2021/05/25 09:10:24;;;;;;;3.72;1.27;;;;;;;10.13;70.17;97293.16;5025540;28;20032;-80
2021/05/25 09:12:51;;;;;;;1.65;0.95;;;;;;;10.04;69.76;97299.78;4991790;28;20389;-79
2021/05/25 09:15:42;;;;;;;2.75;1.27;;;;;;;9.84;70.52;97292.44;5010421;28;20041;-78
2021/05/25 09:18:31;;;;;;;2.55;0.80;;;;;;;9.84;70.67;97297.66;5010052;28;20037;-78
2021/05/25 09:21:05;;;;;;;3.72;1.35;;;;;;;9.96;70.77;97304.59;4995611;28;20025;-79
2021/05/25 09:23:33;;;;;;;2.90;1.42;;;;;;;10.15;71.47;97305.91;4978271;28;20060;-78
2021/05/25 09:26:05;;;;;;;2.50;1.40;;;;;;;10.49;70.99;97303.31;5010692;28;20037;-78
2021/05/25 09:28:32;;;;;;;6.25;2.10;;;;;;;10.47;71.64;97302.75;5004564;28;20029;-78
2021/05/25 09:30:57;;;;;;;2.78;1.10;;;;;;;10.47;72.02;97310.56;4979165;28;20029;-78
2021/05/25 09:33:23;;;;;;;2.17;1.50;;;;;;;10.61;71.66;97321.44;5011371;28;20083;-78
2021/05/25 09:35:50;;;;;;;3.38;0.90;;;;;;;10.71;71.62;97311.16;4993531;28;20492;-78
2021/05/25 09:38:19;;;;;;;3.17;1.67;;;;;;;10.98;70.46;97313.00;4979506;28;20099;-78
2021/05/25 09:40:47;;;;;;;3.10;1.13;;;;;;;11.46;69.22;97323.69;4976273;28;20026;-77
2021/05/25 09:43:23;;;;;;;3.50;1.55;;;;;;;11.83;71.04;97325.59;4995252;28;20033;-77
2021/05/25 09:45:58;;;;;;;3.08;1.30;;;;;;;12.01;69.30;97321.84;4985666;28;20160;-79
2021/05/25 09:48:44;;;;;;;2.13;1.67;;;;;;;12.17;70.16;97324.31;4995719;28;20030;-79
2021/05/25 09:51:30;;;;;;;4.85;1.30;;;;;;;12.38;67.43;97319.22;4992268;28;20131;-77
2021/05/25 09:53:56;;;;;;;3.83;1.05;;;;;;;12.32;68.21;97326.25;4988926;28;20611;-78
2021/05/25 09:56:29;;;;;;;4.55;1.65;;;;;;;12.38;69.93;97315.84;4988174;28;20120;-79
2021/05/25 09:58:56;;;;;;;2.25;1.10;;;;;;;12.57;67.53;97334.50;4989223;28;20034;-78
2021/05/25 10:01:35;;;;;;;2.38;0.80;;;;;;;12.35;65.66;97327.56;4994527;28;20037;-78
2021/05/25 10:04:10;;;;;;;3.58;1.00;;;;;;;12.06;65.44;97327.09;5006724;28;20289;-77
2021/05/25 10:06:35;;;;;;;2.03;0.73;;;;;;;12.11;67.06;97342.78;4994010;28;20036;-78
2021/05/25 10:09:01;;;;;;;2.20;0.80;;;;;;;11.96;67.46;97341.66;4995454;28;20041;-79
2021/05/25 10:11:26;;;;;;;4.40;0.93;;;;;;;11.75;68.03;97338.03;5011103;28;20040;-77
2021/05/25 10:13:52;;;;;;;1.95;0.70;;;;;;;11.65;67.65;97348.38;4977195;28;20124;-78
2021/05/25 10:16:18;;;;;;;2.67;0.82;;;;;;;11.64;65.69;97351.25;4972691;28;20160;-78
2021/05/25 10:21:11;;;;;;;1.30;0.55;;;;;;;11.75;68.31;97368.56;4991439;28;20030;-78
2021/05/25 10:23:38;;;;;;;2.05;0.50;;;;;;;11.85;65.48;97367.88;4978012;28;20025;-78
2021/05/25 10:26:19;;;;;;;1.80;0.60;;;;;;;11.46;64.48;97373.22;4990452;28;20051;-79
2021/05/25 10:28:47;;;;;;;1.55;0.95;;;;;;;11.55;65.15;97380.38;4987058;28;20435;-80
2021/05/25 10:31:33;;;;;;;1.98;0.30;;;;;;;11.11;65.08;97385.59;5010009;28;20108;-79
2021/05/25 10:34:17;;;;;;;3.28;0.60;;;;;;;10.97;67.28;97369.53;5008998;28;20041;-79
2021/05/25 10:36:43;;;;;;;1.88;0.70;;;;;;;10.48;68.07;97364.19;5009354;28;20052;-79
2021/05/25 10:39:10;;;;;;;1.88;0.75;;;;;;;10.44;64.73;97360.50;5004641;28;20053;-79
2021/05/25 10:41:37;;;;;;;2.05;0.95;;;;;;;10.27;66.26;97389.09;5010072;28;20038;-78
2021/05/25 10:44:03;;;;;;;2.53;1.10;;;;;;;10.40;68.06;97385.41;4981464;28;20079;-81
2021/05/25 10:46:30;;;;;;;3.33;1.10;;;;;;;10.47;68.29;97386.06;4992229;28;20030;-80
2021/05/25 10:51:49;;;;;;;2.60;1.33;;;;;;;10.52;70.23;97383.53;5021486;28;20034;-80
2021/05/25 10:54:35;;;;;;;5.20;1.75;;;;;;;10.54;71.87;97365.03;5003860;28;20043;-80
2021/05/25 10:57:47;;;;;;;6.20;1.70;;;;;;;10.87;70.82;97375.41;5010098;28;20485;-80
2021/05/25 11:00:13;;;;;;;8.07;1.88;;;;;;;11.44;70.25;97384.66;4993463;28;20030;-79
2021/05/25 11:02:52;;;;;;;5.40;2.80;;;;;;;11.74;73.91;97362.56;5011761;28;20060;-79
2021/05/25 11:05:29;;;;;;;3.58;1.95;;;;;;;12.15;68.03;97378.59;4993509;28;20717;-77
2021/05/25 11:07:55;;;;;;;4.45;2.38;;;;;;;12.72;69.87;97376.38;5010494;28;20033;-77
2021/05/25 11:10:27;;;;;;;5.95;2.50;;;;;;;13.00;69.00;97377.81;5010367;28;20315;-77
2021/05/25 11:13:14;;;;;;;4.43;2.22;;;;;;;13.05;66.96;97371.81;4996650;28;20056;-77
2021/05/25 11:19:02;;;;;;;4.60;2.75;;;;;;;13.51;67.53;97363.38;5002535;28;20112;-77
2021/05/25 11:24:44;;;;;;;2.67;1.23;;;;;;;13.65;64.43;97362.59;5008347;28;20033;-78
2021/05/25 11:27:33;;;;;;;3.85;1.40;;;;;;;13.77;63.36;97361.59;5012632;28;20076;-78
2021/05/25 11:30:09;;;;;;;4.82;1.90;;;;;;;13.97;62.91;97359.00;5010425;28;20037;-78
2021/05/25 11:32:41;;;;;;;3.72;2.15;;;;;;;13.95;65.35;97355.84;4978490;28;20409;-77
2021/05/25 11:35:15;;;;;;;5.65;2.13;;;;;;;13.87;68.60;97351.13;5017676;28;20029;-78
2021/05/25 11:37:45;;;;;;;3.88;1.38;;;;;;;13.83;64.13;97344.88;4976020;28;20429;-77
2021/05/25 11:40:15;;;;;;;3.50;1.85;;;;;;;13.62;61.61;97341.41;5010502;28;20388;-78
2021/05/25 11:42:43;;;;;;;4.47;1.25;;;;;;;13.97;65.22;97348.53;4986807;28;20031;-77
2021/05/25 11:45:10;;;;;;;3.78;1.23;;;;;;;14.16;60.17;97350.63;5028524;28;20030;-78
2021/05/25 11:47:36;;;;;;;1.48;0.90;;;;;;;14.29;58.76;97363.19;4997490;28;20079;-78
2021/05/25 11:50:02;;;;;;;3.30;0.73;;;;;;;14.25;60.39;97351.66;4996828;28;20041;-78
2021/05/25 11:52:32;;;;;;;5.05;1.17;;;;;;;14.09;63.58;97350.09;5003871;28;20029;-78
2021/05/25 11:55:05;;;;;;;7.93;1.05;;;;;;;14.05;59.15;97349.81;5004997;28;20476;-79
2021/05/25 11:57:42;;;;;;;5.60;2.53;;;;;;;14.02;57.81;97355.59;4991045;28;20095;-78
2021/05/25 12:00:18;;;;;;;4.75;1.00;;;;;;;14.14;59.75;97369.22;4993568;28;20511;-78